메인 페이지
METAR-TAF:

METAR-TAF

공항 :

포트워스, 텍사스, 미국

위도: 32-58-24N, 경도: 097-19-05W, 고도: 220m

현재 날씨관측

예보는 23분 전, 08:53시(UTC)에 발표되었습니다.
남남서9kt
온도 18°C
습도 64%
기압 1007 hPa
시정: 16.1km
고도 12000ft 상공 구름 보통
고도 25000ft 상공 구름 많음
고도 30000ft 상공 흐림

METAR: KAFW 090853Z 21009KT 10SM SCT120 BKN250 OVC300 18/11 A2973 RMK AO2 SLP059 T01830111 53005

시각: 03:16 (09:16 UTC)

예보

예보는 11분 전, 09:05시(UTC)에 발표되었습니다.
예보 대상 시간: 09일 09시부터 10일 06시까지 (UTC)
남남서12kt
시정: 10km
고도 25000ft 상공 구름 많음
09일 1600시부터 (UTC)
14kt
시정: 10km
고도 10000ft 상공 구름 많음
09일 2000시부터 (UTC)
북북서17kt
시정: 10km
고도 6000ft 상공 구름 많음
10일 0500시부터 (UTC)
15kt, 순간 최대 풍속 25kt
시정: 10km
고도 2500ft 상공 구름 보통
고도 5000ft 상공 흐림
시계 내 소나기

TAF: KAFW 090905Z 0909/1006 21012KT P6SM BKN250 FM091600 27014KT P6SM BKN100 FM092000 33017KT P6SM BKN060 FM100500 36015G25KT P6SM VCSH SCT025 OVC050

4,000개 이상의 공항 관측 자료 및 예보 (METAR 및 TAF 보고).

지도상에서 검색 가능한 기상관측소가 노란 점과 빨간 점으로 표시되어 있습니다.

기상관측소 명을 보려면 표시 위로 마우스를 이동하세요.

날씨 관측과 예보를 보려면 클릭하세요.

지도 변경 : 확대하려면 엑스 표시가 있는 녹색 버튼, 축소하려면 빼기 표시가 있는 녹색 버튼, 다음 페이지의 지도를 보려면 녹색 화살표를 클릭하세요.


METAR-TAF: